createdAt,value
2022-11-10T00:02:09.796Z,9.14
2022-11-10T00:04:55.160Z,9.11
2022-11-10T00:07:41.302Z,9.16
2022-11-10T00:10:26.931Z,9.14
2022-11-10T00:13:12.363Z,9.27
2022-11-10T00:16:23.949Z,9.13
2022-11-10T00:19:09.519Z,9.28
2022-11-10T00:21:55.453Z,9.11
2022-11-10T00:24:40.772Z,9.24
2022-11-10T00:27:26.088Z,9.24
2022-11-10T00:30:11.759Z,9.26
2022-11-10T00:32:57.118Z,9.40
2022-11-10T00:35:42.360Z,9.26
2022-11-10T00:38:27.956Z,9.28
2022-11-10T00:41:13.267Z,9.33
2022-11-10T00:43:58.962Z,8.98
2022-11-10T00:46:44.396Z,9.01
2022-11-10T00:49:29.951Z,8.83
2022-11-10T00:52:15.210Z,9.05
2022-11-10T00:55:00.620Z,9.05
2022-11-10T00:57:45.973Z,9.10
2022-11-10T01:00:31.511Z,9.24
2022-11-10T01:03:18.319Z,9.23
2022-11-10T01:06:09.148Z,9.25
2022-11-10T01:08:54.468Z,9.27
2022-11-10T01:11:39.914Z,9.21
2022-11-10T01:14:25.037Z,9.27
2022-11-10T01:17:10.368Z,9.19
2022-11-10T01:19:56.232Z,9.08
2022-11-10T01:22:41.974Z,8.84
2022-11-10T01:25:27.088Z,8.66
2022-11-10T01:28:12.362Z,8.71
2022-11-10T01:31:03.758Z,8.77
2022-11-10T01:33:49.452Z,8.82
2022-11-10T01:36:34.628Z,8.81
2022-11-10T01:39:19.984Z,8.77
2022-11-10T01:42:05.427Z,8.86
2022-11-10T01:45:24.723Z,9.01
2022-11-10T01:48:15.003Z,8.88
2022-11-10T01:51:06.123Z,8.76
2022-11-10T01:53:59.241Z,8.74
2022-11-10T01:56:48.611Z,8.78
2022-11-10T01:59:40.049Z,8.69
2022-11-10T02:02:48.843Z,8.67
2022-11-10T02:05:34.654Z,8.65
2022-11-10T02:08:21.483Z,8.53
2022-11-10T02:11:06.877Z,8.53
2022-11-10T02:13:53.310Z,8.66
2022-11-10T02:16:39.923Z,8.61
2022-11-10T02:19:27.108Z,8.38
2022-11-10T02:22:12.603Z,8.41
2022-11-10T02:24:58.442Z,8.42
2022-11-10T02:27:43.699Z,8.27
2022-11-10T02:30:29.266Z,8.27
2022-11-10T02:33:17.852Z,8.20
2022-11-10T02:36:03.707Z,8.30
2022-11-10T02:38:49.103Z,8.10
2022-11-10T02:41:34.456Z,8.17
2022-11-10T02:44:20.196Z,8.27
2022-11-10T02:47:06.305Z,8.19
2022-11-10T02:49:51.281Z,8.16
2022-11-10T02:52:36.816Z,8.06
2022-11-10T02:55:22.108Z,8.02
2022-11-10T02:58:07.592Z,7.95
2022-11-10T03:00:53.243Z,7.99
2022-11-10T03:03:38.514Z,7.98
2022-11-10T03:06:23.859Z,8.02
2022-11-10T03:09:09.143Z,8.00
2022-11-10T03:11:54.542Z,8.03
2022-11-10T03:14:39.979Z,7.96
2022-11-10T03:17:25.665Z,7.98
2022-11-10T03:20:11.044Z,7.92
2022-11-10T03:23:01.915Z,7.86
2022-11-10T03:25:47.283Z,7.84
2022-11-10T03:28:32.861Z,7.93
2022-11-10T03:31:17.914Z,7.85
2022-11-10T03:34:03.303Z,7.69
2022-11-10T03:36:48.704Z,7.63
2022-11-10T03:39:34.603Z,7.61
2022-11-10T03:42:19.997Z,7.43
2022-11-10T03:45:05.733Z,7.60
2022-11-10T03:47:51.223Z,7.73
2022-11-10T03:50:36.926Z,7.69
2022-11-10T03:53:22.665Z,7.67
2022-11-10T03:56:08.665Z,7.47
2022-11-10T03:58:53.996Z,7.39
2022-11-10T04:01:39.459Z,7.35
2022-11-10T04:04:43.765Z,7.42
2022-11-10T04:07:47.373Z,7.33
2022-11-10T04:10:36.088Z,7.48
2022-11-10T04:13:40.074Z,7.58
2022-11-10T04:16:25.818Z,7.50
2022-11-10T04:19:11.293Z,7.64
2022-11-10T04:21:57.201Z,7.45
2022-11-10T04:24:42.595Z,7.44
2022-11-10T04:27:27.962Z,7.51
2022-11-10T04:30:13.457Z,7.46
2022-11-10T04:32:58.847Z,7.41
2022-11-10T04:35:44.136Z,7.38
2022-11-10T04:38:29.649Z,7.29
2022-11-10T04:41:15.841Z,7.24
2022-11-10T04:44:01.964Z,7.25
2022-11-10T04:46:47.395Z,7.47
2022-11-10T04:49:32.727Z,7.27
2022-11-10T04:52:18.111Z,7.21
2022-11-10T04:55:03.662Z,7.12
2022-11-10T04:57:48.874Z,7.18
2022-11-10T05:00:35.538Z,7.11
2022-11-10T05:03:21.447Z,7.32
2022-11-10T05:06:07.415Z,7.19
2022-11-10T05:08:52.770Z,7.21
2022-11-10T05:11:38.126Z,7.16
2022-11-10T05:14:23.416Z,7.22
2022-11-10T05:17:08.861Z,7.27
2022-11-10T05:19:54.266Z,7.44
2022-11-10T05:22:39.708Z,7.51
2022-11-10T05:25:25.135Z,7.59
2022-11-10T05:28:12.843Z,7.55
2022-11-10T05:30:58.232Z,7.55
2022-11-10T05:33:43.585Z,7.45
2022-11-10T05:36:28.821Z,7.46
2022-11-10T05:39:14.258Z,7.48
2022-11-10T05:41:59.429Z,7.58
2022-11-10T05:44:44.913Z,7.80
2022-11-10T05:47:30.167Z,7.93
2022-11-10T05:50:16.624Z,8.31
2022-11-10T05:53:02.010Z,8.73
2022-11-10T05:55:47.301Z,8.76
2022-11-10T05:58:32.861Z,8.69
2022-11-10T06:01:18.177Z,8.87
2022-11-10T06:04:03.731Z,8.82
2022-11-10T06:06:49.532Z,8.90
2022-11-10T06:09:35.457Z,9.26
2022-11-10T06:12:21.868Z,9.45
2022-11-10T06:15:08.853Z,9.68
2022-11-10T06:17:55.201Z,9.70
2022-11-10T06:20:40.585Z,10.00
2022-11-10T06:23:26.013Z,10.62
2022-11-10T06:26:11.565Z,11.05
2022-11-10T06:28:57.864Z,11.65
2022-11-10T06:31:43.080Z,12.01
2022-11-10T06:34:28.753Z,12.29
2022-11-10T06:37:13.906Z,12.67
2022-11-10T06:39:59.251Z,12.86
2022-11-10T06:42:44.732Z,13.03
2022-11-10T06:45:30.309Z,13.55
2022-11-10T06:48:16.021Z,13.75
2022-11-10T06:51:02.816Z,13.98
2022-11-10T06:53:48.245Z,13.89
2022-11-10T06:56:34.854Z,13.97
2022-11-10T06:59:19.942Z,14.16
2022-11-10T07:02:05.382Z,14.28
2022-11-10T07:04:50.909Z,14.08
2022-11-10T07:07:36.477Z,13.90
2022-11-10T07:10:21.981Z,13.29
2022-11-10T07:13:07.409Z,13.89
2022-11-10T07:15:52.997Z,14.45
2022-11-10T07:18:38.786Z,14.83
2022-11-10T07:21:24.470Z,14.88
2022-11-10T07:24:10.005Z,14.96
2022-11-10T07:26:55.213Z,15.13
2022-11-10T07:29:40.678Z,15.43
2022-11-10T07:32:26.001Z,15.57
2022-11-10T07:35:11.334Z,15.92
2022-11-10T07:37:57.849Z,16.27
2022-11-10T07:40:43.399Z,15.79
2022-11-10T07:43:28.828Z,15.62
2022-11-10T07:46:14.033Z,16.02
2022-11-10T07:48:59.433Z,16.35
2022-11-10T07:51:44.905Z,16.33
2022-11-10T07:54:30.378Z,16.17
2022-11-10T07:57:15.748Z,16.30
2022-11-10T08:00:01.334Z,16.19
2022-11-10T08:02:46.776Z,16.79
2022-11-10T08:05:33.189Z,16.79
2022-11-10T08:08:19.171Z,16.73
2022-11-10T08:11:05.040Z,16.72
2022-11-10T08:13:50.577Z,16.83
2022-11-10T08:16:35.980Z,17.18
2022-11-10T08:19:21.507Z,17.44
2022-11-10T08:22:06.730Z,17.22
2022-11-10T08:24:52.209Z,17.34
2022-11-10T08:27:37.488Z,17.43
2022-11-10T08:30:22.908Z,17.30
2022-11-10T08:33:11.206Z,17.01
2022-11-10T08:35:56.276Z,17.15
2022-11-10T08:38:41.967Z,17.69
2022-11-10T08:41:27.135Z,17.76
2022-11-10T08:44:15.561Z,17.60
2022-11-10T08:47:04.929Z,17.68
2022-11-10T08:49:50.318Z,17.34
2022-11-10T08:52:35.770Z,17.38
2022-11-10T08:55:21.936Z,18.09
2022-11-10T08:58:10.371Z,18.12
2022-11-10T09:00:56.778Z,18.65
2022-11-10T09:03:42.370Z,19.15
2022-11-10T09:06:27.948Z,19.38
2022-11-10T09:09:13.463Z,19.44
2022-11-10T09:11:59.035Z,19.68
2022-11-10T09:14:44.481Z,19.44
2022-11-10T09:17:29.763Z,19.29
2022-11-10T09:20:15.509Z,19.47
2022-11-10T09:23:09.857Z,19.00
2022-11-10T09:25:56.515Z,19.16
2022-11-10T09:28:41.923Z,19.14
2022-11-10T09:31:27.237Z,19.28
2022-11-10T09:34:12.691Z,19.43
2022-11-10T09:36:58.063Z,19.29
2022-11-10T09:39:43.422Z,19.50
2022-11-10T09:42:36.880Z,18.93
2022-11-10T09:45:39.531Z,18.80
2022-11-10T09:48:31.413Z,18.59
2022-11-10T09:51:31.787Z,18.52
2022-11-10T09:54:39.467Z,19.27
2022-11-10T09:57:26.734Z,19.53
2022-11-10T10:00:17.364Z,19.58
2022-11-10T10:03:06.180Z,19.79
2022-11-10T10:06:11.099Z,19.56
2022-11-10T10:09:18.053Z,19.66
2022-11-10T10:12:25.757Z,19.12
2022-11-10T10:15:44.691Z,19.75
2022-11-10T10:18:49.585Z,19.88
2022-11-10T10:21:47.709Z,20.13
2022-11-10T10:24:34.760Z,20.17
2022-11-10T10:27:23.922Z,19.68
2022-11-10T10:30:18.601Z,19.34
2022-11-10T10:33:21.378Z,19.81
2022-11-10T10:36:15.379Z,20.31
2022-11-10T10:39:06.426Z,20.15
2022-11-10T10:41:51.855Z,20.01
2022-11-10T10:44:37.254Z,20.34
2022-11-10T10:47:37.078Z,20.09
2022-11-10T10:50:27.865Z,20.33
2022-11-10T10:53:19.173Z,20.31
2022-11-10T10:56:18.256Z,20.67
2022-11-10T10:59:06.058Z,20.75
2022-11-10T11:01:55.832Z,20.83
2022-11-10T11:04:42.306Z,21.04
2022-11-10T11:07:27.484Z,20.39
2022-11-10T11:10:24.880Z,19.87
2022-11-10T11:13:25.752Z,20.00
2022-11-10T11:16:12.754Z,20.24
2022-11-10T11:18:59.064Z,20.22
2022-11-10T11:22:01.013Z,20.20
2022-11-10T11:25:07.165Z,20.34
2022-11-10T11:28:03.752Z,20.58
2022-11-10T11:31:08.241Z,21.00
2022-11-10T11:34:13.099Z,19.96
2022-11-10T11:37:19.461Z,19.94
2022-11-10T11:40:28.975Z,20.70
2022-11-10T11:43:14.337Z,20.81
2022-11-10T11:46:02.715Z,20.58
2022-11-10T11:48:56.710Z,20.58
2022-11-10T11:52:00.487Z,20.79
2022-11-10T11:55:20.883Z,20.81
2022-11-10T11:58:27.517Z,20.72
2022-11-10T12:01:41.072Z,20.54
2022-11-10T12:04:46.554Z,20.77
2022-11-10T12:08:00.603Z,20.20
2022-11-10T12:11:08.061Z,19.89
2022-11-10T12:14:15.277Z,19.81
2022-11-10T12:17:05.881Z,19.52
2022-11-10T12:20:00.253Z,19.79
2022-11-10T12:22:51.870Z,20.02
2022-11-10T12:26:01.585Z,20.20
2022-11-10T12:28:54.958Z,20.15
2022-11-10T12:31:45.298Z,20.37
2022-11-10T12:34:38.971Z,20.44
2022-11-10T12:37:38.511Z,20.47
2022-11-10T12:40:30.760Z,19.81
2022-11-10T12:43:34.780Z,20.10
2022-11-10T12:46:20.495Z,20.11
2022-11-10T12:49:18.506Z,20.71
2022-11-10T12:52:39.116Z,20.45
2022-11-10T12:55:42.930Z,20.13
2022-11-10T12:58:28.949Z,20.05
2022-11-10T13:01:20.379Z,20.37
2022-11-10T13:04:05.927Z,20.22
2022-11-10T13:06:57.737Z,19.71
2022-11-10T13:09:44.141Z,19.78
2022-11-10T13:12:29.527Z,19.81
2022-11-10T13:15:40.218Z,19.76
2022-11-10T13:18:31.728Z,19.60
2022-11-10T13:21:17.213Z,19.59
2022-11-10T13:24:02.765Z,19.63
2022-11-10T13:26:56.004Z,19.27
2022-11-10T13:29:47.790Z,19.14
2022-11-10T13:32:34.243Z,18.83
2022-11-10T13:35:29.069Z,19.24
2022-11-10T13:38:32.710Z,19.69
2022-11-10T13:41:17.803Z,19.24
2022-11-10T13:44:03.522Z,19.01
2022-11-10T13:47:09.723Z,18.91
2022-11-10T13:50:43.335Z,18.76
2022-11-10T13:53:49.821Z,18.61
2022-11-10T13:56:50.752Z,18.47
2022-11-10T13:59:50.566Z,18.65
2022-11-10T14:02:41.832Z,18.54
2022-11-10T14:05:37.906Z,18.48
2022-11-10T14:08:27.998Z,18.11
2022-11-10T14:11:16.124Z,17.93
2022-11-10T14:14:10.834Z,18.03
2022-11-10T14:16:56.584Z,17.89
2022-11-10T14:19:44.283Z,17.52
2022-11-10T14:22:42.367Z,17.48
2022-11-10T14:25:36.756Z,17.34
2022-11-10T14:28:29.761Z,17.34
2022-11-10T14:31:36.182Z,17.18
2022-11-10T14:34:23.831Z,17.11
2022-11-10T14:37:17.495Z,16.84
2022-11-10T14:40:04.308Z,16.71
2022-11-10T14:42:49.799Z,16.68
2022-11-10T14:45:35.422Z,16.54
2022-11-10T14:48:24.113Z,16.46
2022-11-10T14:51:18.540Z,16.48
2022-11-10T14:54:04.209Z,16.30
2022-11-10T14:56:49.923Z,16.32
2022-11-10T14:59:37.562Z,16.21
2022-11-10T15:02:23.090Z,16.01
2022-11-10T15:05:14.651Z,15.95
2022-11-10T15:08:02.929Z,15.80
2022-11-10T15:10:53.312Z,15.83
2022-11-10T15:13:39.652Z,15.75
2022-11-10T15:16:30.308Z,15.56
2022-11-10T15:19:36.445Z,15.43
2022-11-10T15:22:32.701Z,15.33
2022-11-10T15:25:22.281Z,15.35
2022-11-10T15:28:14.017Z,15.27
2022-11-10T15:31:05.786Z,15.23
2022-11-10T15:33:57.435Z,15.15
2022-11-10T15:36:42.738Z,15.11
2022-11-10T15:39:28.870Z,14.98
2022-11-10T15:42:23.871Z,14.97
2022-11-10T15:45:09.591Z,14.88
2022-11-10T15:47:56.263Z,14.85
2022-11-10T15:50:49.053Z,14.77
2022-11-10T15:53:38.719Z,14.75
2022-11-10T15:56:24.906Z,14.74
2022-11-10T15:59:10.949Z,14.75
2022-11-10T16:01:56.583Z,14.70
2022-11-10T16:04:42.414Z,14.62
2022-11-10T16:07:27.998Z,14.65
2022-11-10T16:10:13.370Z,14.59
2022-11-10T16:12:58.863Z,14.46
2022-11-10T16:15:45.409Z,14.32
2022-11-10T16:18:31.492Z,14.11
2022-11-10T16:21:20.046Z,14.11
2022-11-10T16:24:05.564Z,14.16
2022-11-10T16:26:51.008Z,14.18
2022-11-10T16:29:36.617Z,13.93
2022-11-10T16:32:22.312Z,13.98
2022-11-10T16:35:13.769Z,13.71
2022-11-10T16:37:59.458Z,13.75
2022-11-10T16:40:46.130Z,13.62
2022-11-10T16:43:31.665Z,13.65
2022-11-10T16:46:23.393Z,13.63
2022-11-10T16:49:23.247Z,13.59
2022-11-10T16:52:15.351Z,13.46
2022-11-10T16:55:00.665Z,13.45
2022-11-10T16:57:46.161Z,13.69
2022-11-10T17:00:32.963Z,13.60
2022-11-10T17:03:26.273Z,13.38
2022-11-10T17:06:13.737Z,13.34
2022-11-10T17:09:08.128Z,13.16
2022-11-10T17:11:53.592Z,13.14
2022-11-10T17:14:39.036Z,12.88
2022-11-10T17:17:24.892Z,12.83
2022-11-10T17:20:27.710Z,12.88
2022-11-10T17:23:15.892Z,12.85
2022-11-10T17:26:01.999Z,12.85
2022-11-10T17:28:47.525Z,12.71
2022-11-10T17:31:34.092Z,12.45
2022-11-10T17:34:19.761Z,12.37
2022-11-10T17:37:05.903Z,12.20
2022-11-10T17:39:51.549Z,12.02
2022-11-10T17:42:39.151Z,12.18
2022-11-10T17:45:26.948Z,12.21
2022-11-10T17:48:12.727Z,12.13
2022-11-10T17:50:58.010Z,11.98
2022-11-10T17:53:43.696Z,12.05
2022-11-10T17:56:30.002Z,12.00
2022-11-10T17:59:15.235Z,11.97
2022-11-10T18:02:01.167Z,11.97
2022-11-10T18:04:46.838Z,11.89
2022-11-10T18:07:32.417Z,11.94
2022-11-10T18:10:18.616Z,12.01
2022-11-10T18:13:04.530Z,11.91
2022-11-10T18:15:50.516Z,11.95
2022-11-10T18:18:37.325Z,11.91
2022-11-10T18:21:23.041Z,11.59
2022-11-10T18:24:08.619Z,11.45
2022-11-10T18:26:53.815Z,11.37
2022-11-10T18:29:39.213Z,11.42
2022-11-10T18:32:24.956Z,11.54
2022-11-10T18:35:10.150Z,11.50
2022-11-10T18:37:55.361Z,11.19
2022-11-10T18:40:40.798Z,11.30
2022-11-10T18:43:26.246Z,11.31
2022-11-10T18:46:11.584Z,11.48
2022-11-10T18:48:57.397Z,11.34
2022-11-10T18:51:42.744Z,11.18
2022-11-10T18:54:28.094Z,11.12
2022-11-10T18:57:16.408Z,11.10
2022-11-10T19:00:02.197Z,11.25
2022-11-10T19:02:47.768Z,10.68
2022-11-10T19:05:33.389Z,10.52
2022-11-10T19:08:18.928Z,10.63
2022-11-10T19:11:09.621Z,10.89
2022-11-10T19:13:54.730Z,10.94
2022-11-10T19:16:40.118Z,10.91
2022-11-10T19:19:25.482Z,11.00
2022-11-10T19:22:11.166Z,10.92
2022-11-10T19:25:11.815Z,10.75
2022-11-10T19:27:58.260Z,10.76
2022-11-10T19:30:43.678Z,10.63
2022-11-10T19:33:34.111Z,10.78
2022-11-10T19:36:24.566Z,11.00
2022-11-10T19:39:10.219Z,11.01
2022-11-10T19:41:55.317Z,10.92
2022-11-10T19:44:40.626Z,10.88
2022-11-10T19:47:26.292Z,10.76
2022-11-10T19:50:11.464Z,10.73
2022-11-10T19:52:56.686Z,10.60
2022-11-10T19:55:42.045Z,10.57
2022-11-10T19:58:27.426Z,10.54
2022-11-10T20:01:14.357Z,10.65
2022-11-10T20:04:00.922Z,10.65
2022-11-10T20:06:46.564Z,10.52
2022-11-10T20:09:31.960Z,10.36
2022-11-10T20:12:17.372Z,10.28
2022-11-10T20:15:02.715Z,10.23
2022-11-10T20:17:48.299Z,10.26
2022-11-10T20:20:33.999Z,10.17
2022-11-10T20:23:19.458Z,10.12
2022-11-10T20:26:07.451Z,10.08
2022-11-10T20:28:53.248Z,9.96
2022-11-10T20:31:38.804Z,10.12
2022-11-10T20:34:24.268Z,10.22
2022-11-10T20:37:09.889Z,10.15
2022-11-10T20:39:55.203Z,9.93
2022-11-10T20:42:42.802Z,9.72
2022-11-10T20:45:28.733Z,9.61
2022-11-10T20:48:14.739Z,9.56
2022-11-10T20:51:01.015Z,9.48
2022-11-10T20:53:47.381Z,9.71
2022-11-10T20:56:32.393Z,9.99
2022-11-10T20:59:17.724Z,10.17
2022-11-10T21:02:03.266Z,10.20
2022-11-10T21:04:48.478Z,9.81
2022-11-10T21:07:33.911Z,9.85
2022-11-10T21:10:19.268Z,9.60
2022-11-10T21:13:05.390Z,9.60
2022-11-10T21:15:53.025Z,9.64
2022-11-10T21:18:38.304Z,9.51
2022-11-10T21:21:34.553Z,9.35
2022-11-10T21:24:20.630Z,8.99
2022-11-10T21:27:06.124Z,9.05
2022-11-10T21:29:52.014Z,9.04
2022-11-10T21:32:37.418Z,9.25
2022-11-10T21:35:23.126Z,9.21
2022-11-10T21:38:11.726Z,9.17
2022-11-10T21:40:57.880Z,9.18
2022-11-10T21:43:42.901Z,9.11
2022-11-10T21:46:28.235Z,9.21
2022-11-10T21:49:13.660Z,9.23
2022-11-10T21:51:58.943Z,9.16
2022-11-10T21:54:44.290Z,8.96
2022-11-10T21:57:29.650Z,8.76
2022-11-10T22:00:15.394Z,8.71
2022-11-10T22:03:05.829Z,8.56
2022-11-10T22:05:51.653Z,8.57
2022-11-10T22:08:38.333Z,8.52
2022-11-10T22:11:41.941Z,8.56
2022-11-10T22:14:45.303Z,8.51
2022-11-10T22:17:49.234Z,8.48
2022-11-10T22:20:34.737Z,8.68
2022-11-10T22:23:40.137Z,8.52
2022-11-10T22:26:25.590Z,8.78
2022-11-10T22:29:11.072Z,8.73
2022-11-10T22:31:57.016Z,8.70
2022-11-10T22:34:42.485Z,8.54
2022-11-10T22:37:33.171Z,8.56
2022-11-10T22:40:37.137Z,8.53
2022-11-10T22:43:40.681Z,8.54
2022-11-10T22:46:26.035Z,8.54
2022-11-10T22:49:16.027Z,8.53
2022-11-10T22:52:01.530Z,8.48
2022-11-10T22:54:46.665Z,8.37
2022-11-10T22:57:32.020Z,8.29
2022-11-10T23:00:17.832Z,8.44
2022-11-10T23:03:03.493Z,8.48
2022-11-10T23:05:56.032Z,8.88
2022-11-10T23:08:43.006Z,8.93
2022-11-10T23:11:30.727Z,9.00
2022-11-10T23:14:15.782Z,9.13
2022-11-10T23:17:01.209Z,9.05
2022-11-10T23:19:46.648Z,9.03
2022-11-10T23:22:32.195Z,8.99
2022-11-10T23:25:17.605Z,8.88
2022-11-10T23:28:02.932Z,8.85
2022-11-10T23:30:48.281Z,8.69
2022-11-10T23:33:34.562Z,8.68
2022-11-10T23:36:21.484Z,8.67
2022-11-10T23:39:06.923Z,8.64
2022-11-10T23:41:52.200Z,8.77
2022-11-10T23:44:37.624Z,8.67
2022-11-10T23:47:23.063Z,8.79
2022-11-10T23:50:09.019Z,8.77
2022-11-10T23:52:54.860Z,8.71
2022-11-10T23:55:40.834Z,8.56
2022-11-10T23:58:26.204Z,8.57
